sensor_id;sensor_type;location;lat;lon;timestamp;temperature;humidity
10968;DHT22;5536;49.602;10.980;2023-12-04T00:01:28;-5.00;99.90
10968;DHT22;5536;49.602;10.980;2023-12-04T00:03:55;-5.00;99.90
10968;DHT22;5536;49.602;10.980;2023-12-04T00:06:23;-5.10;99.90
10968;DHT22;5536;49.602;10.980;2023-12-04T00:08:50;-5.10;99.90
10968;DHT22;5536;49.602;10.980;2023-12-04T00:11:17;-5.00;99.90
10968;DHT22;5536;49.602;10.980;2023-12-04T00:13:44;-5.10;99.90
10968;DHT22;5536;49.602;10.980;2023-12-04T00:16:13;-5.10;99.90
10968;DHT22;5536;49.602;10.980;2023-12-04T00:18:40;-5.00;99.90
10968;DHT22;5536;49.602;10.980;2023-12-04T00:21:07;-5.00;99.90
10968;DHT22;5536;49.602;10.980;2023-12-04T00:23:34;-5.00;99.90
10968;DHT22;5536;49.602;10.980;2023-12-04T00:26:01;-4.90;99.90
10968;DHT22;5536;49.602;10.980;2023-12-04T00:28:29;-4.90;99.90
10968;DHT22;5536;49.602;10.980;2023-12-04T00:30:56;-5.00;99.90
10968;DHT22;5536;49.602;10.980;2023-12-04T00:33:25;-4.90;99.90
10968;DHT22;5536;49.602;10.980;2023-12-04T00:35:52;-4.90;99.90
10968;DHT22;5536;49.602;10.980;2023-12-04T00:38:19;-4.90;99.90
10968;DHT22;5536;49.602;10.980;2023-12-04T00:40:46;-4.80;99.90
10968;DHT22;5536;49.602;10.980;2023-12-04T00:43:13;-4.80;99.90
10968;DHT22;5536;49.602;10.980;2023-12-04T00:45:40;-4.70;99.90
10968;DHT22;5536;49.602;10.980;2023-12-04T00:48:07;-4.80;99.90
10968;DHT22;5536;49.602;10.980;2023-12-04T00:50:35;-4.90;99.90
10968;DHT22;5536;49.602;10.980;2023-12-04T00:53:02;-4.80;99.90
10968;DHT22;5536;49.602;10.980;2023-12-04T00:55:29;-4.70;99.90
10968;DHT22;5536;49.602;10.980;2023-12-04T00:57:56;-4.40;99.90
10968;DHT22;5536;49.602;10.980;2023-12-04T01:00:23;-4.20;99.90
10968;DHT22;5536;49.602;10.980;2023-12-04T01:02:51;-4.20;99.90
10968;DHT22;5536;49.602;10.980;2023-12-04T01:05:18;-4.20;99.90
10968;DHT22;5536;49.602;10.980;2023-12-04T01:07:47;-4.40;99.90
10968;DHT22;5536;49.602;10.980;2023-12-04T01:10:14;-4.40;99.90
10968;DHT22;5536;49.602;10.980;2023-12-04T01:12:41;-4.60;99.90
10968;DHT22;5536;49.602;10.980;2023-12-04T01:15:08;-4.70;99.90
10968;DHT22;5536;49.602;10.980;2023-12-04T01:17:36;-4.80;99.90
10968;DHT22;5536;49.602;10.980;2023-12-04T01:20:03;-4.90;99.90
10968;DHT22;5536;49.602;10.980;2023-12-04T01:22:30;-5.00;99.90
10968;DHT22;5536;49.602;10.980;2023-12-04T01:24:59;-5.00;99.90
10968;DHT22;5536;49.602;10.980;2023-12-04T01:27:26;-4.90;99.90
10968;DHT22;5536;49.602;10.980;2023-12-04T01:29:53;-4.90;99.90
10968;DHT22;5536;49.602;10.980;2023-12-04T01:32:20;-4.90;99.90
10968;DHT22;5536;49.602;10.980;2023-12-04T01:34:47;-4.90;99.90
10968;DHT22;5536;49.602;10.980;2023-12-04T01:37:14;-4.90;99.90
10968;DHT22;5536;49.602;10.980;2023-12-04T01:39:41;-4.80;99.90
10968;DHT22;5536;49.602;10.980;2023-12-04T01:42:10;-4.90;99.90
10968;DHT22;5536;49.602;10.980;2023-12-04T01:44:37;-4.90;99.90
10968;DHT22;5536;49.602;10.980;2023-12-04T01:47:04;-4.90;99.90
10968;DHT22;5536;49.602;10.980;2023-12-04T01:49:33;-4.80;99.90
10968;DHT22;5536;49.602;10.980;2023-12-04T01:52:00;-4.70;99.90
10968;DHT22;5536;49.602;10.980;2023-12-04T01:54:28;-4.80;99.90
10968;DHT22;5536;49.602;10.980;2023-12-04T01:56:55;-4.90;99.90
10968;DHT22;5536;49.602;10.980;2023-12-04T01:59:24;-5.00;99.90
10968;DHT22;5536;49.602;10.980;2023-12-04T02:01:52;-5.10;99.90
10968;DHT22;5536;49.602;10.980;2023-12-04T02:04:21;-5.10;99.90
10968;DHT22;5536;49.602;10.980;2023-12-04T02:06:48;-5.20;99.90
10968;DHT22;5536;49.602;10.980;2023-12-04T02:09:15;-5.20;99.90
10968;DHT22;5536;49.602;10.980;2023-12-04T02:11:42;-5.10;99.90
10968;DHT22;5536;49.602;10.980;2023-12-04T02:14:09;-5.20;99.90
10968;DHT22;5536;49.602;10.980;2023-12-04T02:16:40;-5.30;99.90
10968;DHT22;5536;49.602;10.980;2023-12-04T02:19:08;-5.30;99.90
10968;DHT22;5536;49.602;10.980;2023-12-04T02:21:38;-5.40;99.90
10968;DHT22;5536;49.602;10.980;2023-12-04T02:24:07;-5.50;99.90
10968;DHT22;5536;49.602;10.980;2023-12-04T02:26:37;-5.50;99.90
10968;DHT22;5536;49.602;10.980;2023-12-04T02:29:10;-5.60;99.90
10968;DHT22;5536;49.602;10.980;2023-12-04T02:31:39;-5.50;99.90
10968;DHT22;5536;49.602;10.980;2023-12-04T02:34:08;-5.60;99.90
10968;DHT22;5536;49.602;10.980;2023-12-04T02:36:37;-5.60;99.90
10968;DHT22;5536;49.602;10.980;2023-12-04T02:39:07;-5.60;99.90
10968;DHT22;5536;49.602;10.980;2023-12-04T02:41:34;-5.60;99.90
10968;DHT22;5536;49.602;10.980;2023-12-04T02:44:01;-5.60;99.90
10968;DHT22;5536;49.602;10.980;2023-12-04T02:46:28;-5.40;99.90
10968;DHT22;5536;49.602;10.980;2023-12-04T02:48:55;-5.30;99.90
10968;DHT22;5536;49.602;10.980;2023-12-04T02:51:22;-5.20;99.90
10968;DHT22;5536;49.602;10.980;2023-12-04T02:53:53;-5.20;99.90
10968;DHT22;5536;49.602;10.980;2023-12-04T02:56:21;-5.00;99.90
10968;DHT22;5536;49.602;10.980;2023-12-04T02:58:49;-4.80;99.90
10968;DHT22;5536;49.602;10.980;2023-12-04T03:01:16;-4.70;99.90
10968;DHT22;5536;49.602;10.980;2023-12-04T03:03:43;-4.60;99.90
10968;DHT22;5536;49.602;10.980;2023-12-04T03:06:10;-4.50;99.90
10968;DHT22;5536;49.602;10.980;2023-12-04T03:08:37;-4.50;99.90
10968;DHT22;5536;49.602;10.980;2023-12-04T03:11:04;-4.60;99.90
10968;DHT22;5536;49.602;10.980;2023-12-04T03:13:33;-4.60;99.90
10968;DHT22;5536;49.602;10.980;2023-12-04T03:16:00;-4.60;99.90
10968;DHT22;5536;49.602;10.980;2023-12-04T03:18:27;-4.60;99.90
10968;DHT22;5536;49.602;10.980;2023-12-04T03:20:55;-4.70;99.90
10968;DHT22;5536;49.602;10.980;2023-12-04T03:23:22;-4.60;99.90
10968;DHT22;5536;49.602;10.980;2023-12-04T03:25:49;-4.60;99.90
10968;DHT22;5536;49.602;10.980;2023-12-04T03:28:16;-4.70;99.90
10968;DHT22;5536;49.602;10.980;2023-12-04T03:30:44;-4.80;99.90
10968;DHT22;5536;49.602;10.980;2023-12-04T03:33:11;-4.80;99.90
10968;DHT22;5536;49.602;10.980;2023-12-04T03:35:38;-4.80;99.90
10968;DHT22;5536;49.602;10.980;2023-12-04T03:38:06;-4.80;99.90
10968;DHT22;5536;49.602;10.980;2023-12-04T03:40:36;-4.80;99.90
10968;DHT22;5536;49.602;10.980;2023-12-04T03:43:03;-4.80;99.90
10968;DHT22;5536;49.602;10.980;2023-12-04T03:45:30;-4.70;99.90
10968;DHT22;5536;49.602;10.980;2023-12-04T03:47:58;-4.80;99.90
10968;DHT22;5536;49.602;10.980;2023-12-04T03:50:25;-4.90;99.90
10968;DHT22;5536;49.602;10.980;2023-12-04T03:52:52;-5.00;99.90
10968;DHT22;5536;49.602;10.980;2023-12-04T03:55:19;-4.90;99.90
10968;DHT22;5536;49.602;10.980;2023-12-04T03:57:47;-4.90;99.90
10968;DHT22;5536;49.602;10.980;2023-12-04T04:00:14;-5.00;99.90
10968;DHT22;5536;49.602;10.980;2023-12-04T04:02:43;-5.00;99.90
10968;DHT22;5536;49.602;10.980;2023-12-04T04:05:11;-4.90;99.90
10968;DHT22;5536;49.602;10.980;2023-12-04T04:07:42;-5.10;99.90
10968;DHT22;5536;49.602;10.980;2023-12-04T04:10:09;-5.00;99.90
10968;DHT22;5536;49.602;10.980;2023-12-04T04:12:37;-4.90;99.90
10968;DHT22;5536;49.602;10.980;2023-12-04T04:15:05;-5.10;99.90
10968;DHT22;5536;49.602;10.980;2023-12-04T04:17:32;-5.00;99.90
10968;DHT22;5536;49.602;10.980;2023-12-04T04:19:59;-5.00;99.90
10968;DHT22;5536;49.602;10.980;2023-12-04T04:22:28;-5.10;99.90
10968;DHT22;5536;49.602;10.980;2023-12-04T04:24:55;-5.10;99.90
10968;DHT22;5536;49.602;10.980;2023-12-04T04:27:22;-5.10;99.90
10968;DHT22;5536;49.602;10.980;2023-12-04T04:29:49;-5.00;99.90
10968;DHT22;5536;49.602;10.980;2023-12-04T04:32:16;-5.00;99.90
10968;DHT22;5536;49.602;10.980;2023-12-04T04:34:43;-4.90;99.90
10968;DHT22;5536;49.602;10.980;2023-12-04T04:37:10;-4.80;99.90
10968;DHT22;5536;49.602;10.980;2023-12-04T04:39:39;-4.90;99.90
10968;DHT22;5536;49.602;10.980;2023-12-04T04:42:07;-4.80;99.90
10968;DHT22;5536;49.602;10.980;2023-12-04T04:44:34;-4.70;99.90
10968;DHT22;5536;49.602;10.980;2023-12-04T04:47:01;-4.80;99.90
10968;DHT22;5536;49.602;10.980;2023-12-04T04:49:28;-4.80;99.90
10968;DHT22;5536;49.602;10.980;2023-12-04T04:51:55;-4.90;99.90
10968;DHT22;5536;49.602;10.980;2023-12-04T04:54:22;-4.90;99.90
10968;DHT22;5536;49.602;10.980;2023-12-04T04:56:50;-4.90;99.90
10968;DHT22;5536;49.602;10.980;2023-12-04T04:59:17;-5.00;99.90
10968;DHT22;5536;49.602;10.980;2023-12-04T05:01:44;-5.00;99.90
10968;DHT22;5536;49.602;10.980;2023-12-04T05:04:12;-5.00;99.90
10968;DHT22;5536;49.602;10.980;2023-12-04T05:06:39;-5.10;99.90
10968;DHT22;5536;49.602;10.980;2023-12-04T05:09:06;-5.10;99.90
10968;DHT22;5536;49.602;10.980;2023-12-04T05:11:33;-5.20;99.90
10968;DHT22;5536;49.602;10.980;2023-12-04T05:14:01;-5.20;99.90
10968;DHT22;5536;49.602;10.980;2023-12-04T05:16:28;-5.20;99.90
10968;DHT22;5536;49.602;10.980;2023-12-04T05:18:56;-5.20;99.90
10968;DHT22;5536;49.602;10.980;2023-12-04T05:21:23;-5.10;99.90
10968;DHT22;5536;49.602;10.980;2023-12-04T05:23:50;-5.10;99.90
10968;DHT22;5536;49.602;10.980;2023-12-04T05:26:17;-5.10;99.90
10968;DHT22;5536;49.602;10.980;2023-12-04T05:28:44;-5.10;99.90
10968;DHT22;5536;49.602;10.980;2023-12-04T05:31:13;-5.00;99.90
10968;DHT22;5536;49.602;10.980;2023-12-04T05:33:40;-5.10;99.90
10968;DHT22;5536;49.602;10.980;2023-12-04T05:36:08;-5.10;99.90
10968;DHT22;5536;49.602;10.980;2023-12-04T05:38:35;-5.10;99.90
10968;DHT22;5536;49.602;10.980;2023-12-04T05:41:02;-5.10;99.90
10968;DHT22;5536;49.602;10.980;2023-12-04T05:43:29;-5.10;99.90
10968;DHT22;5536;49.602;10.980;2023-12-04T05:45:56;-4.90;99.90
10968;DHT22;5536;49.602;10.980;2023-12-04T05:48:25;-5.00;99.90
10968;DHT22;5536;49.602;10.980;2023-12-04T05:50:52;-5.00;99.90
10968;DHT22;5536;49.602;10.980;2023-12-04T05:53:19;-4.90;99.90
10968;DHT22;5536;49.602;10.980;2023-12-04T05:55:46;-4.80;99.90
10968;DHT22;5536;49.602;10.980;2023-12-04T05:58:13;-4.80;99.90
10968;DHT22;5536;49.602;10.980;2023-12-04T06:00:40;-4.70;99.90
10968;DHT22;5536;49.602;10.980;2023-12-04T06:03:07;-4.70;99.90
10968;DHT22;5536;49.602;10.980;2023-12-04T06:05:35;-4.70;99.90
10968;DHT22;5536;49.602;10.980;2023-12-04T06:08:02;-4.70;99.90
10968;DHT22;5536;49.602;10.980;2023-12-04T06:10:30;-4.70;99.90
10968;DHT22;5536;49.602;10.980;2023-12-04T06:12:59;-4.70;99.90
10968;DHT22;5536;49.602;10.980;2023-12-04T06:15:26;-4.80;99.90
10968;DHT22;5536;49.602;10.980;2023-12-04T06:17:53;-4.80;99.90
10968;DHT22;5536;49.602;10.980;2023-12-04T06:20:20;-4.90;99.90
10968;DHT22;5536;49.602;10.980;2023-12-04T06:22:49;-4.90;99.90
10968;DHT22;5536;49.602;10.980;2023-12-04T06:25:17;-4.90;99.90
10968;DHT22;5536;49.602;10.980;2023-12-04T06:27:45;-4.90;99.90
10968;DHT22;5536;49.602;10.980;2023-12-04T06:30:13;-4.90;99.90
10968;DHT22;5536;49.602;10.980;2023-12-04T06:32:40;-4.90;99.90
10968;DHT22;5536;49.602;10.980;2023-12-04T06:35:09;-4.90;99.90
10968;DHT22;5536;49.602;10.980;2023-12-04T06:37:38;-4.80;99.90
10968;DHT22;5536;49.602;10.980;2023-12-04T06:40:08;-4.70;99.90
10968;DHT22;5536;49.602;10.980;2023-12-04T06:42:37;-4.70;99.90
10968;DHT22;5536;49.602;10.980;2023-12-04T06:45:05;-4.70;99.90
10968;DHT22;5536;49.602;10.980;2023-12-04T06:47:34;-4.60;99.90
10968;DHT22;5536;49.602;10.980;2023-12-04T06:50:02;-4.60;99.90
10968;DHT22;5536;49.602;10.980;2023-12-04T06:52:29;-4.60;99.90
10968;DHT22;5536;49.602;10.980;2023-12-04T06:54:56;-4.50;99.90
10968;DHT22;5536;49.602;10.980;2023-12-04T06:57:24;-4.50;99.90
10968;DHT22;5536;49.602;10.980;2023-12-04T06:59:51;-4.50;99.90
10968;DHT22;5536;49.602;10.980;2023-12-04T07:02:18;-4.50;99.90
10968;DHT22;5536;49.602;10.980;2023-12-04T07:04:45;-4.50;99.90
10968;DHT22;5536;49.602;10.980;2023-12-04T07:07:13;-4.50;99.90
10968;DHT22;5536;49.602;10.980;2023-12-04T07:09:40;-4.50;99.90
10968;DHT22;5536;49.602;10.980;2023-12-04T07:12:08;-4.50;99.90
10968;DHT22;5536;49.602;10.980;2023-12-04T07:14:36;-4.50;99.90
10968;DHT22;5536;49.602;10.980;2023-12-04T07:17:03;-4.50;99.90
10968;DHT22;5536;49.602;10.980;2023-12-04T07:19:30;-4.50;99.90
10968;DHT22;5536;49.602;10.980;2023-12-04T07:21:57;-4.40;99.90
10968;DHT22;5536;49.602;10.980;2023-12-04T07:24:24;-4.40;99.90
10968;DHT22;5536;49.602;10.980;2023-12-04T07:26:52;-4.40;99.90
10968;DHT22;5536;49.602;10.980;2023-12-04T07:29:19;-4.40;99.90
10968;DHT22;5536;49.602;10.980;2023-12-04T07:31:47;-4.40;99.90
10968;DHT22;5536;49.602;10.980;2023-12-04T07:34:14;-4.30;99.90
10968;DHT22;5536;49.602;10.980;2023-12-04T07:36:41;-4.30;99.90
10968;DHT22;5536;49.602;10.980;2023-12-04T07:39:09;-4.30;99.90
10968;DHT22;5536;49.602;10.980;2023-12-04T07:41:36;-4.10;99.90
10968;DHT22;5536;49.602;10.980;2023-12-04T07:44:04;-4.00;99.90
10968;DHT22;5536;49.602;10.980;2023-12-04T07:46:31;-3.90;99.90
10968;DHT22;5536;49.602;10.980;2023-12-04T07:48:59;-3.90;99.90
10968;DHT22;5536;49.602;10.980;2023-12-04T07:51:26;-3.90;99.90
10968;DHT22;5536;49.602;10.980;2023-12-04T07:53:53;-3.80;99.90
10968;DHT22;5536;49.602;10.980;2023-12-04T07:56:24;-3.80;99.90
10968;DHT22;5536;49.602;10.980;2023-12-04T07:58:51;-3.70;99.90
10968;DHT22;5536;49.602;10.980;2023-12-04T08:01:18;-3.70;99.90
10968;DHT22;5536;49.602;10.980;2023-12-04T08:03:44;-3.70;99.90
10968;DHT22;5536;49.602;10.980;2023-12-04T08:06:13;-3.70;99.90
10968;DHT22;5536;49.602;10.980;2023-12-04T08:08:41;-3.60;99.90
10968;DHT22;5536;49.602;10.980;2023-12-04T08:11:10;-3.60;99.90
10968;DHT22;5536;49.602;10.980;2023-12-04T08:13:38;-3.60;99.90
10968;DHT22;5536;49.602;10.980;2023-12-04T08:16:12;-3.50;99.90
10968;DHT22;5536;49.602;10.980;2023-12-04T08:18:40;-3.50;99.90
10968;DHT22;5536;49.602;10.980;2023-12-04T08:21:07;-3.50;99.90
10968;DHT22;5536;49.602;10.980;2023-12-04T08:23:36;-3.40;99.90
10968;DHT22;5536;49.602;10.980;2023-12-04T08:26:03;-3.20;99.90
10968;DHT22;5536;49.602;10.980;2023-12-04T08:28:30;-3.10;99.90
10968;DHT22;5536;49.602;10.980;2023-12-04T08:30:57;-2.90;99.90
10968;DHT22;5536;49.602;10.980;2023-12-04T08:33:24;-2.80;99.90
10968;DHT22;5536;49.602;10.980;2023-12-04T08:35:51;-2.60;99.90
10968;DHT22;5536;49.602;10.980;2023-12-04T08:38:18;-2.60;99.90
10968;DHT22;5536;49.602;10.980;2023-12-04T08:40:47;-2.60;99.90
10968;DHT22;5536;49.602;10.980;2023-12-04T08:43:14;-2.50;99.90
10968;DHT22;5536;49.602;10.980;2023-12-04T08:45:41;-2.50;99.90
10968;DHT22;5536;49.602;10.980;2023-12-04T08:48:08;-2.50;99.90
10968;DHT22;5536;49.602;10.980;2023-12-04T08:50:35;-2.30;99.90
10968;DHT22;5536;49.602;10.980;2023-12-04T08:53:03;-2.20;99.90
10968;DHT22;5536;49.602;10.980;2023-12-04T08:55:30;-2.10;99.90
10968;DHT22;5536;49.602;10.980;2023-12-04T08:57:59;-2.10;99.90
10968;DHT22;5536;49.602;10.980;2023-12-04T09:00:26;-2.10;99.90
10968;DHT22;5536;49.602;10.980;2023-12-04T09:02:53;-2.00;99.90
10968;DHT22;5536;49.602;10.980;2023-12-04T09:05:20;-1.90;99.90
10968;DHT22;5536;49.602;10.980;2023-12-04T09:07:47;-1.90;99.90
10968;DHT22;5536;49.602;10.980;2023-12-04T09:10:15;-1.80;99.90
10968;DHT22;5536;49.602;10.980;2023-12-04T09:12:42;-1.80;99.90
10968;DHT22;5536;49.602;10.980;2023-12-04T09:15:11;-1.70;99.90
10968;DHT22;5536;49.602;10.980;2023-12-04T09:17:38;-1.70;99.90
10968;DHT22;5536;49.602;10.980;2023-12-04T09:20:06;-1.80;99.90
10968;DHT22;5536;49.602;10.980;2023-12-04T09:22:34;-1.80;99.90
10968;DHT22;5536;49.602;10.980;2023-12-04T09:25:04;-1.70;99.90
10968;DHT22;5536;49.602;10.980;2023-12-04T09:27:31;-1.70;99.90
10968;DHT22;5536;49.602;10.980;2023-12-04T09:29:58;-1.50;99.90
10968;DHT22;5536;49.602;10.980;2023-12-04T09:32:27;-1.50;99.90
10968;DHT22;5536;49.602;10.980;2023-12-04T09:34:54;-1.40;99.90
10968;DHT22;5536;49.602;10.980;2023-12-04T09:37:21;-1.40;99.90
10968;DHT22;5536;49.602;10.980;2023-12-04T09:39:48;-1.40;99.90
10968;DHT22;5536;49.602;10.980;2023-12-04T09:42:17;-1.40;99.90
10968;DHT22;5536;49.602;10.980;2023-12-04T09:44:46;-1.40;99.90
10968;DHT22;5536;49.602;10.980;2023-12-04T09:47:16;-1.40;99.90
10968;DHT22;5536;49.602;10.980;2023-12-04T09:49:45;-1.40;99.90
10968;DHT22;5536;49.602;10.980;2023-12-04T09:52:14;-1.30;99.90
10968;DHT22;5536;49.602;10.980;2023-12-04T09:54:44;-1.30;99.90
10968;DHT22;5536;49.602;10.980;2023-12-04T09:57:11;-1.30;99.90
10968;DHT22;5536;49.602;10.980;2023-12-04T09:59:40;-1.20;99.90
10968;DHT22;5536;49.602;10.980;2023-12-04T10:02:08;-1.10;99.90
10968;DHT22;5536;49.602;10.980;2023-12-04T10:04:35;-1.00;99.90
10968;DHT22;5536;49.602;10.980;2023-12-04T10:07:03;-1.00;99.90
10968;DHT22;5536;49.602;10.980;2023-12-04T10:09:31;-1.00;99.90
10968;DHT22;5536;49.602;10.980;2023-12-04T10:11:58;-0.80;99.90
10968;DHT22;5536;49.602;10.980;2023-12-04T10:14:25;-0.80;99.90
10968;DHT22;5536;49.602;10.980;2023-12-04T10:16:52;-0.70;99.90
10968;DHT22;5536;49.602;10.980;2023-12-04T10:19:20;-0.60;99.90
10968;DHT22;5536;49.602;10.980;2023-12-04T10:21:49;-0.60;99.90
10968;DHT22;5536;49.602;10.980;2023-12-04T10:24:32;-0.50;99.90
10968;DHT22;5536;49.602;10.980;2023-12-04T10:27:00;-0.50;99.90
10968;DHT22;5536;49.602;10.980;2023-12-04T10:29:29;-0.40;99.90
10968;DHT22;5536;49.602;10.980;2023-12-04T10:31:59;-0.40;99.90
10968;DHT22;5536;49.602;10.980;2023-12-04T10:34:26;-0.40;99.90
10968;DHT22;5536;49.602;10.980;2023-12-04T10:36:53;-0.30;99.90
10968;DHT22;5536;49.602;10.980;2023-12-04T10:39:20;-0.30;99.90
10968;DHT22;5536;49.602;10.980;2023-12-04T10:41:59;-0.30;99.90
10968;DHT22;5536;49.602;10.980;2023-12-04T10:44:28;-0.30;99.90
10968;DHT22;5536;49.602;10.980;2023-12-04T10:46:56;-0.20;99.90
10968;DHT22;5536;49.602;10.980;2023-12-04T10:49:27;-0.10;99.90
10968;DHT22;5536;49.602;10.980;2023-12-04T10:51:56;0.00;99.90
10968;DHT22;5536;49.602;10.980;2023-12-04T10:54:25;-0.10;99.90
10968;DHT22;5536;49.602;10.980;2023-12-04T10:56:53;0.00;99.90
10968;DHT22;5536;49.602;10.980;2023-12-04T10:59:27;0.00;99.90
10968;DHT22;5536;49.602;10.980;2023-12-04T11:01:59;-0.10;99.90
10968;DHT22;5536;49.602;10.980;2023-12-04T11:04:31;-0.10;99.90
10968;DHT22;5536;49.602;10.980;2023-12-04T11:07:02;0.00;99.90
10968;DHT22;5536;49.602;10.980;2023-12-04T11:09:32;0.00;99.90
10968;DHT22;5536;49.602;10.980;2023-12-04T11:12:05;0.00;99.90
10968;DHT22;5536;49.602;10.980;2023-12-04T11:14:41;0.00;99.90
10968;DHT22;5536;49.602;10.980;2023-12-04T11:17:12;0.00;99.90
10968;DHT22;5536;49.602;10.980;2023-12-04T11:19:47;0.10;99.90
10968;DHT22;5536;49.602;10.980;2023-12-04T11:22:17;0.10;99.90
10968;DHT22;5536;49.602;10.980;2023-12-04T11:24:47;0.10;99.90
10968;DHT22;5536;49.602;10.980;2023-12-04T11:27:15;0.10;99.90
10968;DHT22;5536;49.602;10.980;2023-12-04T11:29:45;0.00;99.90
10968;DHT22;5536;49.602;10.980;2023-12-04T11:32:14;0.00;99.90
10968;DHT22;5536;49.602;10.980;2023-12-04T11:34:48;0.00;99.90
10968;DHT22;5536;49.602;10.980;2023-12-04T11:37:15;0.00;99.90
10968;DHT22;5536;49.602;10.980;2023-12-04T11:39:42;-0.10;99.90
10968;DHT22;5536;49.602;10.980;2023-12-04T11:42:12;-0.20;99.90
10968;DHT22;5536;49.602;10.980;2023-12-04T11:44:41;-0.30;99.90
10968;DHT22;5536;49.602;10.980;2023-12-04T11:47:11;-0.30;99.90
10968;DHT22;5536;49.602;10.980;2023-12-04T11:49:38;-0.30;99.90
10968;DHT22;5536;49.602;10.980;2023-12-04T11:52:06;-0.20;99.90
10968;DHT22;5536;49.602;10.980;2023-12-04T11:54:57;-0.30;99.90
10968;DHT22;5536;49.602;10.980;2023-12-04T11:57:24;-0.30;99.90
10968;DHT22;5536;49.602;10.980;2023-12-04T11:59:52;-0.30;99.90
10968;DHT22;5536;49.602;10.980;2023-12-04T12:02:20;-0.30;99.90
10968;DHT22;5536;49.602;10.980;2023-12-04T12:04:47;-0.40;99.90
10968;DHT22;5536;49.602;10.980;2023-12-04T12:07:15;-0.40;99.90
10968;DHT22;5536;49.602;10.980;2023-12-04T12:09:42;-0.40;99.90
10968;DHT22;5536;49.602;10.980;2023-12-04T12:12:09;-0.40;99.90
10968;DHT22;5536;49.602;10.980;2023-12-04T12:14:36;-0.40;99.90
10968;DHT22;5536;49.602;10.980;2023-12-04T12:17:03;-0.50;99.90
10968;DHT22;5536;49.602;10.980;2023-12-04T12:19:32;-0.50;99.90
10968;DHT22;5536;49.602;10.980;2023-12-04T12:21:59;-0.40;99.90
10968;DHT22;5536;49.602;10.980;2023-12-04T12:24:26;-0.30;99.90
10968;DHT22;5536;49.602;10.980;2023-12-04T12:26:54;-0.20;99.90
10968;DHT22;5536;49.602;10.980;2023-12-04T12:29:21;-0.30;99.90
10968;DHT22;5536;49.602;10.980;2023-12-04T12:31:48;-0.20;99.90
10968;DHT22;5536;49.602;10.980;2023-12-04T12:34:17;-0.20;99.90
10968;DHT22;5536;49.602;10.980;2023-12-04T12:36:46;-0.10;99.90
10968;DHT22;5536;49.602;10.980;2023-12-04T12:39:13;0.00;99.90
10968;DHT22;5536;49.602;10.980;2023-12-04T12:41:47;-0.10;99.90
10968;DHT22;5536;49.602;10.980;2023-12-04T12:44:14;-0.10;99.90
10968;DHT22;5536;49.602;10.980;2023-12-04T12:46:42;-0.10;99.90
10968;DHT22;5536;49.602;10.980;2023-12-04T12:49:09;-0.10;99.90
10968;DHT22;5536;49.602;10.980;2023-12-04T12:51:36;-0.10;99.90
10968;DHT22;5536;49.602;10.980;2023-12-04T12:54:05;-0.10;99.90
10968;DHT22;5536;49.602;10.980;2023-12-04T12:56:32;-0.10;99.90
10968;DHT22;5536;49.602;10.980;2023-12-04T12:58:59;-0.10;99.90
10968;DHT22;5536;49.602;10.980;2023-12-04T13:01:30;-0.10;99.90
10968;DHT22;5536;49.602;10.980;2023-12-04T13:03:57;-0.10;99.90
10968;DHT22;5536;49.602;10.980;2023-12-04T13:06:25;-0.20;99.90
10968;DHT22;5536;49.602;10.980;2023-12-04T13:08:52;-0.20;99.90
10968;DHT22;5536;49.602;10.980;2023-12-04T13:11:20;-0.10;99.90
10968;DHT22;5536;49.602;10.980;2023-12-04T13:13:47;-0.20;99.90
10968;DHT22;5536;49.602;10.980;2023-12-04T13:16:14;-0.10;99.90
10968;DHT22;5536;49.602;10.980;2023-12-04T13:18:42;-0.10;99.90
10968;DHT22;5536;49.602;10.980;2023-12-04T13:21:09;-0.10;99.90
10968;DHT22;5536;49.602;10.980;2023-12-04T13:23:36;-0.10;99.90
10968;DHT22;5536;49.602;10.980;2023-12-04T13:26:04;-0.10;99.90
10968;DHT22;5536;49.602;10.980;2023-12-04T13:28:32;0.00;99.90
10968;DHT22;5536;49.602;10.980;2023-12-04T13:31:00;0.00;99.90
10968;DHT22;5536;49.602;10.980;2023-12-04T13:33:27;0.00;99.90
10968;DHT22;5536;49.602;10.980;2023-12-04T13:35:54;0.00;99.90
10968;DHT22;5536;49.602;10.980;2023-12-04T13:38:21;0.00;99.90
10968;DHT22;5536;49.602;10.980;2023-12-04T13:40:48;0.00;99.90
10968;DHT22;5536;49.602;10.980;2023-12-04T13:43:26;-0.10;99.90
10968;DHT22;5536;49.602;10.980;2023-12-04T13:46:12;0.00;99.90
10968;DHT22;5536;49.602;10.980;2023-12-04T13:48:39;0.00;99.90
10968;DHT22;5536;49.602;10.980;2023-12-04T13:51:08;0.00;99.90
10968;DHT22;5536;49.602;10.980;2023-12-04T13:53:35;0.00;99.90
10968;DHT22;5536;49.602;10.980;2023-12-04T13:56:05;0.00;99.90
10968;DHT22;5536;49.602;10.980;2023-12-04T13:58:51;0.00;99.90
10968;DHT22;5536;49.602;10.980;2023-12-04T14:01:24;0.00;99.90
10968;DHT22;5536;49.602;10.980;2023-12-04T14:03:54;0.00;99.90
10968;DHT22;5536;49.602;10.980;2023-12-04T14:06:27;0.10;99.90
10968;DHT22;5536;49.602;10.980;2023-12-04T14:08:56;0.00;99.90
10968;DHT22;5536;49.602;10.980;2023-12-04T14:11:26;0.00;99.90
10968;DHT22;5536;49.602;10.980;2023-12-04T14:13:52;-0.10;99.90
10968;DHT22;5536;49.602;10.980;2023-12-04T14:16:20;0.00;99.90
10968;DHT22;5536;49.602;10.980;2023-12-04T14:18:48;-0.10;99.90
10968;DHT22;5536;49.602;10.980;2023-12-04T14:21:16;-0.10;99.90
10968;DHT22;5536;49.602;10.980;2023-12-04T14:23:43;-0.10;99.90
10968;DHT22;5536;49.602;10.980;2023-12-04T14:26:10;-0.10;99.90
10968;DHT22;5536;49.602;10.980;2023-12-04T14:28:37;-0.10;99.90
10968;DHT22;5536;49.602;10.980;2023-12-04T14:31:06;-0.20;99.90
10968;DHT22;5536;49.602;10.980;2023-12-04T14:33:33;-0.30;99.90
10968;DHT22;5536;49.602;10.980;2023-12-04T14:36:02;-0.30;99.90
10968;DHT22;5536;49.602;10.980;2023-12-04T14:38:29;-0.30;99.90
10968;DHT22;5536;49.602;10.980;2023-12-04T14:40:56;-0.30;99.90
10968;DHT22;5536;49.602;10.980;2023-12-04T14:43:24;-0.30;99.90
10968;DHT22;5536;49.602;10.980;2023-12-04T14:45:51;-0.30;99.90
10968;DHT22;5536;49.602;10.980;2023-12-04T14:48:18;-0.40;99.90
10968;DHT22;5536;49.602;10.980;2023-12-04T14:50:45;-0.40;99.90
10968;DHT22;5536;49.602;10.980;2023-12-04T14:53:14;-0.40;99.90
10968;DHT22;5536;49.602;10.980;2023-12-04T14:55:54;-0.40;99.90
10968;DHT22;5536;49.602;10.980;2023-12-04T14:58:38;-0.50;99.90
10968;DHT22;5536;49.602;10.980;2023-12-04T15:01:22;-0.40;99.90
10968;DHT22;5536;49.602;10.980;2023-12-04T15:04:05;-0.40;99.90
10968;DHT22;5536;49.602;10.980;2023-12-04T15:06:49;-0.50;99.90
10968;DHT22;5536;49.602;10.980;2023-12-04T15:09:46;-0.50;99.90
10968;DHT22;5536;49.602;10.980;2023-12-04T15:12:29;-0.50;99.90
10968;DHT22;5536;49.602;10.980;2023-12-04T15:15:13;-0.50;99.90
10968;DHT22;5536;49.602;10.980;2023-12-04T15:17:52;-0.50;99.90
10968;DHT22;5536;49.602;10.980;2023-12-04T15:20:22;-0.60;99.90
10968;DHT22;5536;49.602;10.980;2023-12-04T15:22:59;-0.60;99.90
10968;DHT22;5536;49.602;10.980;2023-12-04T15:25:28;-0.60;99.90
10968;DHT22;5536;49.602;10.980;2023-12-04T15:27:54;-0.70;99.90
10968;DHT22;5536;49.602;10.980;2023-12-04T15:30:21;-0.70;99.90
10968;DHT22;5536;49.602;10.980;2023-12-04T15:32:47;-0.80;99.90
10968;DHT22;5536;49.602;10.980;2023-12-04T15:35:14;-0.80;99.90
10968;DHT22;5536;49.602;10.980;2023-12-04T15:37:40;-0.90;99.90
10968;DHT22;5536;49.602;10.980;2023-12-04T15:40:08;-0.90;99.90